createdAt,value
2019-03-31T00:00:04.136Z,92.41
2019-03-31T00:01:08.369Z,92.13
2019-03-31T00:02:04.130Z,92.41
2019-03-31T00:03:04.122Z,92.79
2019-03-31T00:04:04.117Z,93.46
2019-03-31T00:05:04.112Z,93.93
2019-03-31T00:06:04.113Z,93.65
2019-03-31T00:07:04.103Z,93.74
2019-03-31T00:08:04.100Z,93.55
2019-03-31T00:09:04.096Z,94.32
2019-03-31T00:10:04.089Z,94.03
2019-03-31T00:11:04.086Z,94.98
2019-03-31T00:12:04.078Z,95.46
2019-03-31T00:13:04.074Z,95.51
2019-03-31T00:14:04.070Z,95.79
2019-03-31T00:15:04.064Z,96.36
2019-03-31T00:16:04.061Z,95.79
2019-03-31T00:17:04.054Z,95.60
2019-03-31T00:18:04.048Z,96.08
2019-03-31T00:19:04.045Z,95.98
2019-03-31T00:20:04.041Z,96.46
2019-03-31T00:21:04.035Z,96.75
2019-03-31T00:22:04.028Z,96.55
2019-03-31T00:23:04.025Z,96.94
2019-03-31T00:24:04.019Z,96.84
2019-03-31T00:25:04.016Z,96.94
2019-03-31T00:26:04.014Z,96.65
2019-03-31T00:27:04.008Z,96.75
2019-03-31T00:28:04.001Z,96.94
2019-03-31T00:29:03.998Z,96.75
2019-03-31T00:30:03.990Z,97.13
2019-03-31T00:31:03.987Z,96.84
2019-03-31T00:32:04.062Z,97.03
2019-03-31T00:33:03.973Z,97.79
2019-03-31T00:34:03.969Z,97.03
2019-03-31T00:35:03.983Z,97.22
2019-03-31T00:36:03.968Z,97.89
2019-03-31T00:37:03.955Z,97.51
2019-03-31T00:38:03.948Z,97.89
2019-03-31T00:39:03.943Z,97.79
2019-03-31T00:40:03.936Z,97.41
2019-03-31T00:41:03.931Z,97.22
2019-03-31T00:42:03.926Z,97.22
2019-03-31T00:43:03.922Z,97.60
2019-03-31T00:44:03.918Z,97.31
2019-03-31T00:45:03.910Z,97.13
2019-03-31T00:46:03.906Z,96.55
2019-03-31T00:47:03.904Z,96.08
2019-03-31T00:48:03.897Z,96.46
2019-03-31T00:49:03.892Z,96.36
2019-03-31T00:50:03.885Z,96.36
2019-03-31T00:51:03.885Z,96.46
2019-03-31T00:52:03.873Z,95.60
2019-03-31T00:53:03.869Z,95.70
2019-03-31T00:54:03.862Z,95.60
2019-03-31T00:55:03.858Z,95.89
2019-03-31T00:56:03.855Z,95.51
2019-03-31T00:57:03.847Z,95.70
2019-03-31T00:58:03.844Z,95.98
2019-03-31T00:59:03.841Z,96.17
2019-03-31T01:00:03.832Z,96.55
2019-03-31T01:01:03.825Z,96.17
2019-03-31T01:02:03.820Z,96.17
2019-03-31T01:03:03.815Z,96.84
2019-03-31T01:04:03.810Z,96.75
2019-03-31T01:05:03.806Z,96.36
2019-03-31T01:06:03.801Z,96.94
2019-03-31T01:07:03.794Z,96.36
2019-03-31T01:08:03.794Z,96.55
2019-03-31T01:09:03.786Z,96.84
2019-03-31T01:10:03.780Z,96.65
2019-03-31T01:11:03.771Z,96.75
2019-03-31T01:12:03.853Z,96.65
2019-03-31T01:13:03.760Z,96.75
2019-03-31T01:14:03.755Z,96.17
2019-03-31T01:15:03.753Z,96.36
2019-03-31T01:16:03.743Z,95.98
2019-03-31T01:17:03.738Z,96.36
2019-03-31T01:18:03.734Z,95.89
2019-03-31T01:19:03.730Z,95.75
2019-03-31T01:20:03.722Z,95.65
2019-03-31T01:21:03.716Z,95.60
2019-03-31T01:22:03.712Z,95.65
2019-03-31T01:23:03.705Z,95.36
2019-03-31T01:24:03.701Z,94.89
2019-03-31T01:25:03.697Z,94.70
2019-03-31T01:26:03.689Z,94.89
2019-03-31T01:27:03.689Z,95.46
2019-03-31T01:28:03.676Z,95.84
2019-03-31T01:29:03.672Z,95.27
2019-03-31T01:30:03.670Z,95.17
2019-03-31T01:31:03.663Z,94.98
2019-03-31T01:32:03.662Z,95.08
2019-03-31T01:33:03.650Z,95.17
2019-03-31T01:34:03.646Z,94.98
2019-03-31T01:35:03.642Z,95.08
2019-03-31T01:36:03.632Z,95.17
2019-03-31T01:37:03.628Z,95.17
2019-03-31T01:38:03.623Z,95.36
2019-03-31T01:39:03.614Z,95.17
2019-03-31T01:40:03.609Z,94.98
2019-03-31T01:41:03.605Z,95.08
2019-03-31T01:42:03.598Z,94.89
2019-03-31T01:43:03.592Z,95.08
2019-03-31T01:44:03.593Z,94.89
2019-03-31T01:45:03.580Z,94.98
2019-03-31T01:46:03.578Z,95.08
2019-03-31T01:47:03.570Z,94.98
2019-03-31T01:48:03.565Z,95.46
2019-03-31T01:49:03.561Z,95.36
2019-03-31T01:50:03.554Z,95.84
2019-03-31T01:51:03.550Z,95.89
2019-03-31T01:52:03.542Z,96.22
2019-03-31T01:53:03.542Z,95.98
2019-03-31T01:54:03.532Z,96.22
2019-03-31T01:55:03.525Z,96.80
2019-03-31T01:56:03.517Z,96.55
2019-03-31T01:57:03.511Z,96.98
2019-03-31T01:58:03.506Z,97.13
2019-03-31T01:59:03.501Z,96.94
2019-03-31T02:00:03.496Z,96.98
2019-03-31T02:01:03.499Z,96.84
2019-03-31T02:02:04.664Z,97.22
2019-03-31T02:03:03.480Z,97.22
2019-03-31T02:04:03.480Z,97.70
2019-03-31T02:05:03.465Z,97.22
2019-03-31T02:06:03.460Z,97.41
2019-03-31T02:07:03.457Z,97.60
2019-03-31T02:08:03.450Z,97.79
2019-03-31T02:09:03.440Z,97.41
2019-03-31T02:10:03.440Z,97.51
2019-03-31T02:11:03.430Z,97.41
2019-03-31T02:12:03.425Z,98.18
2019-03-31T02:13:03.419Z,98.18
2019-03-31T02:14:03.413Z,98.65
2019-03-31T02:15:03.406Z,99.32
2019-03-31T02:16:03.403Z,99.32
2019-03-31T02:17:03.397Z,99.60
2019-03-31T02:18:03.394Z,99.69
2019-03-31T02:19:03.385Z,99.99
2019-03-31T02:20:03.375Z,99.99
2019-03-31T02:21:03.370Z,99.99
2019-03-31T02:22:03.372Z,99.99
2019-03-31T02:23:03.364Z,99.99
2019-03-31T02:24:03.351Z,99.99
2019-03-31T02:25:03.355Z,99.99
2019-03-31T02:26:03.344Z,99.99
2019-03-31T02:27:03.341Z,99.99
2019-03-31T02:28:03.333Z,99.99
2019-03-31T02:29:03.325Z,99.99
2019-03-31T02:30:03.327Z,99.99
2019-03-31T02:31:03.314Z,99.99
2019-03-31T02:32:15.334Z,99.99
2019-03-31T02:33:03.306Z,99.99
2019-03-31T02:34:03.305Z,99.99
2019-03-31T02:35:03.292Z,99.99
2019-03-31T02:36:03.284Z,99.99
2019-03-31T02:37:03.277Z,99.99
2019-03-31T02:38:03.275Z,99.99
2019-03-31T02:39:03.267Z,99.99
2019-03-31T02:40:03.264Z,99.99
2019-03-31T02:41:03.255Z,99.99
2019-03-31T02:42:03.250Z,99.99
2019-03-31T02:43:03.242Z,99.99
2019-03-31T02:44:03.239Z,99.99
2019-03-31T02:45:03.229Z,99.99
2019-03-31T02:46:03.227Z,99.99
2019-03-31T02:47:03.217Z,99.99
2019-03-31T02:48:03.227Z,99.99
2019-03-31T02:49:03.209Z,99.99
2019-03-31T02:50:03.205Z,99.99
2019-03-31T02:51:03.208Z,99.99
2019-03-31T02:52:03.199Z,99.99
2019-03-31T02:53:03.183Z,99.99
2019-03-31T02:54:03.199Z,99.99
2019-03-31T02:55:03.202Z,99.99
2019-03-31T02:56:03.161Z,99.99
2019-03-31T02:57:03.160Z,99.99
2019-03-31T02:58:03.167Z,99.99
2019-03-31T02:59:03.147Z,99.99
2019-03-31T03:00:03.139Z,99.99
2019-03-31T03:01:03.153Z,99.99
2019-03-31T03:02:03.151Z,99.99
2019-03-31T03:03:03.124Z,99.99
2019-03-31T03:04:03.138Z,99.99
2019-03-31T03:05:17.867Z,99.99
2019-03-31T03:06:03.118Z,99.99
2019-03-31T03:07:03.097Z,99.99
2019-03-31T03:08:03.104Z,99.99
2019-03-31T03:09:03.086Z,99.99
2019-03-31T03:10:03.085Z,99.99
2019-03-31T03:11:03.073Z,99.99
2019-03-31T03:12:03.068Z,99.99
2019-03-31T03:13:03.069Z,99.99
2019-03-31T03:14:03.073Z,99.99
2019-03-31T03:15:03.049Z,99.99
2019-03-31T03:16:03.042Z,99.99
2019-03-31T03:17:03.037Z,99.99
2019-03-31T03:18:03.037Z,99.99
2019-03-31T03:19:03.032Z,99.99
2019-03-31T03:20:03.014Z,99.99
2019-03-31T03:21:03.013Z,99.99
2019-03-31T03:22:03.011Z,99.99
2019-03-31T03:23:03.023Z,99.99
2019-03-31T03:24:03.004Z,99.99
2019-03-31T03:25:02.985Z,99.99
2019-03-31T03:26:02.976Z,99.99
2019-03-31T03:27:02.971Z,99.99
2019-03-31T03:28:02.971Z,99.99
2019-03-31T03:29:02.965Z,99.99
2019-03-31T03:30:02.987Z,99.99
2019-03-31T03:31:03.181Z,99.99
2019-03-31T03:32:02.957Z,99.99
2019-03-31T03:33:14.932Z,99.99
2019-03-31T03:34:02.933Z,99.99
2019-03-31T03:35:02.942Z,99.99
2019-03-31T03:36:02.917Z,99.99
2019-03-31T03:37:02.983Z,99.99
2019-03-31T03:38:02.899Z,99.99
2019-03-31T03:39:02.899Z,99.99
2019-03-31T03:40:02.890Z,99.99
2019-03-31T03:41:02.891Z,99.99
2019-03-31T03:42:02.898Z,99.99
2019-03-31T03:43:02.867Z,99.99
2019-03-31T03:44:03.023Z,99.99
2019-03-31T03:45:02.859Z,99.99
2019-03-31T03:46:02.849Z,99.99
2019-03-31T03:47:02.850Z,99.99
2019-03-31T03:48:02.842Z,99.99
2019-03-31T03:49:03.058Z,99.99
2019-03-31T03:50:02.868Z,99.99
2019-03-31T03:51:02.820Z,99.99
2019-03-31T03:52:02.845Z,99.99
2019-03-31T03:53:02.806Z,99.99
2019-03-31T03:54:02.805Z,99.99
2019-03-31T03:55:02.791Z,99.99
2019-03-31T03:56:02.787Z,99.99
2019-03-31T03:57:02.787Z,99.99
2019-03-31T03:58:02.781Z,99.99
2019-03-31T03:59:02.764Z,99.99
2019-03-31T04:00:02.760Z,99.99
2019-03-31T04:01:02.754Z,99.99
2019-03-31T04:02:02.748Z,99.99
2019-03-31T04:03:02.744Z,99.99
2019-03-31T04:04:02.731Z,99.99
2019-03-31T04:05:02.726Z,99.99
2019-03-31T04:06:02.723Z,99.99
2019-03-31T04:07:02.713Z,99.99
2019-03-31T04:08:02.704Z,99.99
2019-03-31T04:09:02.706Z,99.99
2019-03-31T04:10:02.692Z,99.99
2019-03-31T04:11:02.687Z,99.99
2019-03-31T04:12:02.682Z,99.99
2019-03-31T04:13:02.674Z,99.99
2019-03-31T04:14:02.669Z,99.99
2019-03-31T04:15:02.677Z,99.99
2019-03-31T04:16:02.653Z,99.99
2019-03-31T04:17:02.661Z,99.99
2019-03-31T04:18:02.645Z,99.99
2019-03-31T04:19:02.633Z,99.99
2019-03-31T04:20:02.626Z,99.99
2019-03-31T04:21:02.623Z,99.99
2019-03-31T04:22:02.615Z,99.99
2019-03-31T04:23:02.605Z,99.99
2019-03-31T04:24:02.600Z,99.99
2019-03-31T04:25:02.602Z,99.99
2019-03-31T04:26:02.604Z,99.99
2019-03-31T04:27:02.581Z,99.99
2019-03-31T04:28:02.572Z,99.99
2019-03-31T04:29:02.565Z,99.99
2019-03-31T04:30:02.567Z,99.99
2019-03-31T04:31:02.556Z,99.99
2019-03-31T04:32:02.545Z,99.99
2019-03-31T04:33:02.546Z,99.99
2019-03-31T04:34:02.539Z,99.99
2019-03-31T04:35:02.527Z,99.99
2019-03-31T04:36:02.518Z,99.99
2019-03-31T04:37:02.520Z,99.99
2019-03-31T04:38:02.505Z,99.99
2019-03-31T04:39:02.502Z,99.99
2019-03-31T04:40:02.487Z,99.99
2019-03-31T04:41:02.484Z,99.99
2019-03-31T04:42:02.476Z,99.99
2019-03-31T04:43:02.468Z,99.99
2019-03-31T04:44:02.460Z,99.99
2019-03-31T04:45:02.454Z,99.99
2019-03-31T04:46:02.450Z,99.99
2019-03-31T04:47:02.439Z,99.99
2019-03-31T04:48:02.439Z,99.99
2019-03-31T04:49:02.425Z,99.99
2019-03-31T04:50:02.420Z,99.99
2019-03-31T04:51:02.411Z,99.99
2019-03-31T04:52:02.406Z,99.99
2019-03-31T04:53:02.399Z,99.99
2019-03-31T04:54:02.479Z,99.99
2019-03-31T04:55:02.385Z,99.99
2019-03-31T04:56:02.380Z,99.99
2019-03-31T04:57:04.536Z,99.99
2019-03-31T04:58:02.367Z,99.99
2019-03-31T04:59:02.359Z,99.99
2019-03-31T05:00:02.350Z,99.99
2019-03-31T05:01:02.345Z,99.99
2019-03-31T05:02:02.335Z,99.99
2019-03-31T05:03:02.331Z,99.99
2019-03-31T05:04:05.102Z,99.99
2019-03-31T05:05:02.311Z,99.99
2019-03-31T05:06:02.310Z,99.99
2019-03-31T05:07:02.301Z,99.99
2019-03-31T05:08:02.294Z,99.99
2019-03-31T05:09:02.285Z,99.99
2019-03-31T05:10:02.278Z,99.99
2019-03-31T05:11:02.273Z,99.99
2019-03-31T05:12:02.264Z,99.99
2019-03-31T05:13:02.261Z,99.99
2019-03-31T05:14:02.250Z,99.99
2019-03-31T05:15:02.243Z,99.99
2019-03-31T05:16:02.298Z,99.99
2019-03-31T05:17:02.241Z,99.99
2019-03-31T05:18:02.221Z,99.99
2019-03-31T05:19:02.219Z,99.99
2019-03-31T05:20:02.208Z,99.99
2019-03-31T05:21:02.200Z,99.99
2019-03-31T05:22:02.195Z,99.99
2019-03-31T05:23:02.187Z,99.99
2019-03-31T05:24:02.178Z,99.99
2019-03-31T05:25:02.171Z,99.99
2019-03-31T05:26:02.168Z,99.99
2019-03-31T05:27:02.158Z,99.99
2019-03-31T05:28:02.182Z,99.99
2019-03-31T05:29:02.149Z,99.99
2019-03-31T05:30:02.141Z,99.99
2019-03-31T05:31:02.129Z,99.99
2019-03-31T05:32:02.122Z,99.99
2019-03-31T05:33:02.114Z,99.99
2019-03-31T05:34:02.106Z,99.99
2019-03-31T05:35:02.100Z,99.99
2019-03-31T05:36:02.095Z,99.99
2019-03-31T05:37:02.086Z,99.99
2019-03-31T05:38:02.081Z,99.99
2019-03-31T05:39:02.071Z,99.99
2019-03-31T05:40:02.066Z,99.99
2019-03-31T05:41:02.072Z,99.99
2019-03-31T05:42:02.052Z,99.99
2019-03-31T05:43:02.045Z,99.99
2019-03-31T05:44:05.984Z,99.99
2019-03-31T05:45:02.030Z,99.99
2019-03-31T05:46:02.023Z,99.99
2019-03-31T05:47:02.016Z,99.99
2019-03-31T05:48:02.006Z,99.99
2019-03-31T05:49:01.999Z,99.99
2019-03-31T05:50:01.993Z,99.99
2019-03-31T05:51:01.989Z,99.99
2019-03-31T05:52:01.982Z,99.99
2019-03-31T05:53:01.970Z,99.99
2019-03-31T05:54:01.964Z,99.99
2019-03-31T05:55:01.960Z,99.99
2019-03-31T05:56:01.948Z,99.99
2019-03-31T05:57:01.942Z,99.99
2019-03-31T05:58:01.933Z,99.99
2019-03-31T05:59:01.928Z,99.99
2019-03-31T06:00:01.921Z,99.99
2019-03-31T06:01:01.913Z,99.99
2019-03-31T06:02:01.905Z,99.99
2019-03-31T06:03:01.898Z,99.99
2019-03-31T06:04:01.889Z,99.99
2019-03-31T06:05:01.888Z,99.99
2019-03-31T06:06:01.876Z,99.99
2019-03-31T06:07:01.877Z,99.99
2019-03-31T06:08:01.861Z,99.99
2019-03-31T06:09:01.855Z,99.99
2019-03-31T06:10:01.847Z,99.99
2019-03-31T06:11:01.839Z,99.99
2019-03-31T06:12:01.830Z,99.99
2019-03-31T06:13:01.825Z,99.99
2019-03-31T06:14:01.818Z,99.99
2019-03-31T06:15:01.811Z,99.99
2019-03-31T06:16:01.805Z,99.99
2019-03-31T06:17:01.795Z,99.99
2019-03-31T06:18:01.790Z,99.99
2019-03-31T06:19:01.782Z,99.99
2019-03-31T06:20:01.776Z,99.32
2019-03-31T06:21:01.774Z,97.17
2019-03-31T06:22:01.760Z,95.08
2019-03-31T06:23:01.754Z,93.65
2019-03-31T06:24:01.748Z,91.98
2019-03-31T06:25:01.741Z,90.98
2019-03-31T06:26:01.737Z,89.40
2019-03-31T06:27:01.725Z,87.30
2019-03-31T06:28:01.719Z,85.68
2019-03-31T06:29:01.713Z,84.86
2019-03-31T06:30:01.707Z,84.39
2019-03-31T06:31:01.700Z,84.06
2019-03-31T06:32:01.691Z,83.81
2019-03-31T06:33:01.689Z,82.29
2019-03-31T06:34:01.684Z,82.61
2019-03-31T06:35:01.678Z,80.80
2019-03-31T06:36:01.714Z,79.88
2019-03-31T06:37:01.664Z,78.45
2019-03-31T06:38:01.660Z,78.26
2019-03-31T06:39:01.654Z,77.63
2019-03-31T06:40:01.650Z,78.11
2019-03-31T06:41:01.649Z,76.33
2019-03-31T06:42:01.639Z,75.51
2019-03-31T06:43:01.634Z,73.21
2019-03-31T06:44:01.629Z,73.05
2019-03-31T06:45:01.626Z,72.25
2019-03-31T06:46:01.620Z,72.54
2019-03-31T06:47:01.617Z,72.06
2019-03-31T06:48:01.613Z,72.83
2019-03-31T06:49:01.607Z,72.16
2019-03-31T06:50:01.617Z,72.25
2019-03-31T06:51:01.599Z,71.42
2019-03-31T06:52:01.601Z,70.89
2019-03-31T06:53:01.589Z,69.80
2019-03-31T06:54:01.584Z,70.21
2019-03-31T06:55:01.586Z,71.83
2019-03-31T06:56:01.578Z,72.22
2019-03-31T06:57:01.569Z,72.25
2019-03-31T06:58:01.577Z,70.09
2019-03-31T06:59:01.566Z,69.17
2019-03-31T07:00:01.556Z,68.40
2019-03-31T07:01:01.557Z,68.65
2019-03-31T07:02:03.197Z,68.74
2019-03-31T07:03:01.550Z,69.51
2019-03-31T07:04:01.551Z,68.97
2019-03-31T07:05:02.058Z,67.34
2019-03-31T07:06:01.541Z,69.13
2019-03-31T07:07:01.537Z,69.26
2019-03-31T07:08:01.534Z,67.91
2019-03-31T07:09:01.530Z,67.72
2019-03-31T07:10:01.526Z,67.82
2019-03-31T07:11:01.529Z,67.72
2019-03-31T07:12:01.518Z,66.99
2019-03-31T07:13:01.516Z,66.29
2019-03-31T07:14:01.514Z,67.63
2019-03-31T07:15:01.553Z,67.91
2019-03-31T07:16:01.515Z,66.99
2019-03-31T07:17:01.509Z,66.74
2019-03-31T07:18:01.498Z,66.03
2019-03-31T07:19:01.499Z,67.76
2019-03-31T07:20:01.496Z,71.51
2019-03-31T07:21:01.493Z,73.54
2019-03-31T07:22:01.490Z,76.27
2019-03-31T07:23:01.489Z,78.05
2019-03-31T07:24:01.484Z,80.49
2019-03-31T07:25:01.485Z,82.11
2019-03-31T07:26:01.480Z,83.44
2019-03-31T07:27:01.475Z,84.30
2019-03-31T07:28:01.471Z,84.40
2019-03-31T07:29:01.466Z,84.78
2019-03-31T07:30:01.467Z,83.92
2019-03-31T07:31:01.465Z,84.92
2019-03-31T07:32:01.455Z,85.31
2019-03-31T07:33:01.455Z,86.41
2019-03-31T07:34:01.448Z,87.84
2019-03-31T07:35:01.443Z,88.12
2019-03-31T07:36:01.440Z,88.98
2019-03-31T07:37:01.435Z,89.46
2019-03-31T07:38:01.433Z,88.79
2019-03-31T07:39:01.532Z,88.26
2019-03-31T07:40:01.697Z,88.07
2019-03-31T07:41:11.929Z,88.26
2019-03-31T07:42:01.914Z,88.17
2019-03-31T07:43:01.432Z,88.22
2019-03-31T07:44:01.404Z,88.12
2019-03-31T07:45:01.398Z,89.07
2019-03-31T07:46:01.392Z,89.07
2019-03-31T07:47:01.389Z,89.46
2019-03-31T07:48:01.385Z,89.65
2019-03-31T07:49:01.377Z,90.70
2019-03-31T07:50:01.371Z,91.22
2019-03-31T07:51:01.372Z,91.51
2019-03-31T07:52:01.367Z,92.36
2019-03-31T07:53:01.357Z,92.65
2019-03-31T07:54:01.351Z,92.84
2019-03-31T07:55:01.348Z,93.32
2019-03-31T07:56:01.341Z,92.74
2019-03-31T07:57:01.338Z,93.41
2019-03-31T07:58:01.339Z,92.74
2019-03-31T07:59:01.373Z,92.46
2019-03-31T08:00:01.386Z,93.27
2019-03-31T08:01:01.315Z,91.08
2019-03-31T08:02:01.309Z,89.94
2019-03-31T08:03:01.303Z,89.31
2019-03-31T08:04:01.299Z,88.17
2019-03-31T08:05:01.294Z,87.88
2019-03-31T08:06:01.287Z,87.50
2019-03-31T08:07:01.284Z,86.55
2019-03-31T08:08:01.280Z,87.31
2019-03-31T08:09:01.271Z,86.65
2019-03-31T08:10:01.267Z,86.79
2019-03-31T08:11:01.261Z,87.17
2019-03-31T08:12:01.253Z,86.69
2019-03-31T08:13:01.249Z,87.07
2019-03-31T08:14:01.245Z,87.17
2019-03-31T08:15:01.238Z,87.46
2019-03-31T08:16:01.233Z,87.31
2019-03-31T08:17:01.226Z,87.46
2019-03-31T08:18:01.222Z,87.60
2019-03-31T08:19:01.217Z,87.27
2019-03-31T08:20:01.211Z,86.69
2019-03-31T08:21:01.205Z,87.17
2019-03-31T08:22:01.203Z,87.65
2019-03-31T08:23:01.197Z,87.40
2019-03-31T08:24:01.191Z,87.60
2019-03-31T08:25:01.187Z,87.21
2019-03-31T08:26:01.182Z,86.60
2019-03-31T08:27:01.175Z,86.69
2019-03-31T08:28:01.167Z,87.17
2019-03-31T08:29:01.170Z,86.98
2019-03-31T08:30:01.484Z,87.17
2019-03-31T08:31:01.153Z,87.36
2019-03-31T08:32:01.149Z,87.17
2019-03-31T08:33:01.142Z,87.17
2019-03-31T08:34:01.135Z,87.55
2019-03-31T08:35:01.135Z,87.55
2019-03-31T08:36:01.127Z,87.55
2019-03-31T08:37:01.118Z,87.69
2019-03-31T08:38:01.114Z,86.65
2019-03-31T08:39:01.112Z,86.83
2019-03-31T08:40:01.105Z,86.93
2019-03-31T08:41:01.100Z,87.02
2019-03-31T08:42:01.096Z,87.40
2019-03-31T08:43:01.087Z,86.74
2019-03-31T08:44:01.085Z,86.45
2019-03-31T08:45:01.076Z,86.26
2019-03-31T08:46:01.072Z,85.35
2019-03-31T08:47:01.066Z,85.83
2019-03-31T08:48:01.061Z,85.41
2019-03-31T08:49:01.054Z,84.83
2019-03-31T08:50:02.331Z,84.74
2019-03-31T08:51:01.047Z,85.78
2019-03-31T08:52:01.041Z,85.69
2019-03-31T08:53:01.041Z,85.97
2019-03-31T08:54:01.029Z,86.03
2019-03-31T08:55:01.028Z,86.69
2019-03-31T08:56:01.017Z,87.17
2019-03-31T08:57:01.013Z,87.74
2019-03-31T08:58:01.009Z,87.74
2019-03-31T08:59:01.001Z,88.22
2019-03-31T09:00:00.996Z,88.70
2019-03-31T09:01:00.991Z,88.12
2019-03-31T09:02:03.346Z,87.65
2019-03-31T09:03:00.987Z,88.12
2019-03-31T09:04:00.972Z,88.51
2019-03-31T09:05:00.967Z,88.75
2019-03-31T09:06:02.522Z,89.41
2019-03-31T09:07:00.962Z,89.22
2019-03-31T09:08:00.948Z,89.79
2019-03-31T09:09:00.944Z,90.75
2019-03-31T09:10:00.942Z,91.13
2019-03-31T09:11:00.936Z,91.60
2019-03-31T09:12:00.929Z,92.27
2019-03-31T09:13:00.922Z,92.27
2019-03-31T09:14:00.916Z,92.84
2019-03-31T09:15:00.913Z,93.03
2019-03-31T09:16:00.905Z,93.22
2019-03-31T09:17:00.900Z,94.27
2019-03-31T09:18:00.892Z,94.37
2019-03-31T09:19:00.886Z,95.12
2019-03-31T09:20:00.878Z,94.65
2019-03-31T09:21:00.877Z,95.51
2019-03-31T09:22:00.867Z,95.51
2019-03-31T09:23:00.868Z,96.41
2019-03-31T09:24:00.856Z,96.03
2019-03-31T09:25:00.859Z,96.31
2019-03-31T09:26:00.843Z,96.89
2019-03-31T09:27:00.839Z,96.98
2019-03-31T09:28:00.831Z,97.46
2019-03-31T09:29:00.824Z,96.79
2019-03-31T09:30:00.820Z,96.89
2019-03-31T09:31:00.814Z,97.08
2019-03-31T09:32:00.805Z,96.70
2019-03-31T09:33:00.801Z,96.51
2019-03-31T09:34:00.793Z,96.89
2019-03-31T09:35:00.788Z,96.51
2019-03-31T09:36:15.130Z,96.75
2019-03-31T09:37:00.778Z,96.12
2019-03-31T09:38:00.767Z,95.94
2019-03-31T09:39:00.764Z,95.79
2019-03-31T09:40:00.755Z,96.08
2019-03-31T09:41:00.751Z,95.32
2019-03-31T09:42:00.743Z,93.08
2019-03-31T09:43:00.737Z,92.74
2019-03-31T09:44:00.730Z,93.22
2019-03-31T09:45:00.723Z,93.32
2019-03-31T09:46:00.717Z,92.74
2019-03-31T09:47:00.718Z,92.08
2019-03-31T09:49:32.306Z,91.89
2019-03-31T09:50:32.290Z,90.94
2019-03-31T09:52:25.156Z,89.89
2019-03-31T09:53:25.145Z,90.27
2019-03-31T09:55:18.034Z,90.08
2019-03-31T09:56:18.005Z,90.56
2019-03-31T09:58:10.902Z,89.22
2019-03-31T09:59:10.879Z,89.41
2019-03-31T10:01:03.751Z,89.46
2019-03-31T10:02:03.740Z,89.46
2019-03-31T10:03:56.621Z,88.17
2019-03-31T10:04:56.600Z,88.36
2019-03-31T10:06:49.478Z,86.55
2019-03-31T10:07:49.470Z,86.74
2019-03-31T10:09:42.347Z,84.30
2019-03-31T10:10:42.326Z,83.16
2019-03-31T10:12:35.212Z,83.25
2019-03-31T10:13:35.189Z,81.88
2019-03-31T10:15:28.074Z,82.26
2019-03-31T10:16:28.050Z,82.83
2019-03-31T10:18:20.939Z,82.87
2019-03-31T10:19:20.917Z,82.40
2019-03-31T10:21:13.791Z,81.44
2019-03-31T10:22:13.780Z,80.77
2019-03-31T10:24:06.667Z,80.87
2019-03-31T10:25:06.652Z,80.20
2019-03-31T10:26:59.520Z,79.82
2019-03-31T10:27:59.508Z,80.77
2019-03-31T10:29:52.394Z,80.16
2019-03-31T10:30:52.374Z,79.78
2019-03-31T10:32:45.249Z,79.91
2019-03-31T10:33:45.237Z,79.63
2019-03-31T10:35:38.120Z,78.67
2019-03-31T10:36:44.358Z,78.30
2019-03-31T10:38:30.984Z,77.72
2019-03-31T10:39:30.963Z,78.10
2019-03-31T10:41:23.842Z,78.01
2019-03-31T10:42:23.828Z,77.49
2019-03-31T10:44:16.711Z,77.82
2019-03-31T10:45:16.690Z,77.53
2019-03-31T10:47:09.569Z,77.53
2019-03-31T10:48:20.147Z,76.71
2019-03-31T10:50:02.441Z,75.95
2019-03-31T10:51:02.424Z,74.13
2019-03-31T10:52:55.300Z,72.83
2019-03-31T10:53:55.285Z,73.60
2019-03-31T10:55:48.691Z,71.88
2019-03-31T10:56:48.670Z,69.49
2019-03-31T10:58:42.067Z,68.82
2019-03-31T10:59:42.050Z,70.45
2019-03-31T11:01:34.955Z,70.92
2019-03-31T11:02:34.937Z,72.26
2019-03-31T11:04:27.823Z,71.78
2019-03-31T11:05:27.803Z,72.07
2019-03-31T11:07:20.685Z,69.56
2019-03-31T11:08:20.674Z,68.98
2019-03-31T11:10:13.563Z,69.84
2019-03-31T11:11:13.539Z,70.32
2019-03-31T11:13:06.809Z,71.75
2019-03-31T11:14:06.795Z,71.81
2019-03-31T11:15:59.677Z,72.38
2019-03-31T11:16:59.658Z,73.05
2019-03-31T11:18:52.545Z,72.76
2019-03-31T11:19:52.522Z,73.43
2019-03-31T11:21:45.397Z,74.19
2019-03-31T11:22:45.384Z,73.72
2019-03-31T11:24:38.273Z,74.38
2019-03-31T11:25:38.255Z,74.29
2019-03-31T11:27:31.123Z,73.81
2019-03-31T11:28:31.115Z,73.62
2019-03-31T11:30:24.002Z,72.76
2019-03-31T11:31:23.979Z,72.57
2019-03-31T11:32:23.978Z,73.72
2019-03-31T11:33:23.966Z,72.48
2019-03-31T11:34:23.964Z,70.09
2019-03-31T11:35:23.959Z,70.28
2019-03-31T11:36:23.958Z,70.76
2019-03-31T11:37:23.948Z,69.23
2019-03-31T11:38:23.948Z,68.66
2019-03-31T11:39:23.937Z,68.57
2019-03-31T11:40:23.933Z,69.23
2019-03-31T11:41:23.928Z,70.47
2019-03-31T11:42:23.923Z,69.81
2019-03-31T11:43:23.920Z,69.04
2019-03-31T11:44:27.425Z,69.04
2019-03-31T11:45:23.926Z,69.08
2019-03-31T11:46:23.907Z,67.36
2019-03-31T11:47:23.898Z,67.65
2019-03-31T11:48:23.894Z,67.65
2019-03-31T11:49:23.887Z,66.78
2019-03-31T11:50:23.883Z,66.50
2019-03-31T11:51:23.877Z,66.63
2019-03-31T11:52:23.874Z,65.48
2019-03-31T11:53:23.870Z,64.43
2019-03-31T11:54:23.866Z,61.57
2019-03-31T11:55:23.859Z,63.20
2019-03-31T11:56:23.856Z,63.32
2019-03-31T11:57:23.849Z,62.55
2019-03-31T11:58:23.848Z,60.55
2019-03-31T11:59:23.840Z,60.17
2019-03-31T12:00:23.835Z,58.54
2019-03-31T12:01:23.829Z,58.36
2019-03-31T12:02:27.299Z,57.87
2019-03-31T12:03:23.820Z,56.73
2019-03-31T12:04:23.815Z,58.36
2019-03-31T12:05:23.812Z,57.97
2019-03-31T12:06:23.806Z,57.24
2019-03-31T12:07:28.201Z,58.00
2019-03-31T12:08:23.801Z,58.58
2019-03-31T12:09:23.796Z,56.76
2019-03-31T12:10:23.997Z,56.76
2019-03-31T12:11:23.856Z,56.76
2019-03-31T12:12:24.216Z,55.52
2019-03-31T12:13:23.777Z,57.17
2019-03-31T12:14:23.771Z,55.26
2019-03-31T12:15:23.768Z,54.94
2019-03-31T12:16:23.765Z,53.89
2019-03-31T12:17:23.761Z,54.08
2019-03-31T12:18:23.760Z,53.70
2019-03-31T12:19:23.751Z,54.34
2019-03-31T12:20:23.748Z,54.82
2019-03-31T12:21:23.744Z,55.49
2019-03-31T12:22:23.741Z,55.40
2019-03-31T12:23:23.736Z,56.09
2019-03-31T12:24:23.732Z,55.77
2019-03-31T12:25:23.728Z,55.11
2019-03-31T12:26:23.744Z,55.87
2019-03-31T12:27:23.722Z,56.47
2019-03-31T12:28:23.716Z,57.43
2019-03-31T12:29:23.712Z,55.90
2019-03-31T12:30:23.707Z,55.74
2019-03-31T12:31:23.707Z,55.16
2019-03-31T12:32:23.702Z,53.92
2019-03-31T12:33:23.696Z,54.02
2019-03-31T12:34:23.692Z,53.41
2019-03-31T12:35:23.691Z,53.32
2019-03-31T12:36:23.690Z,53.80
2019-03-31T12:37:23.681Z,53.03
2019-03-31T12:38:23.679Z,53.86
2019-03-31T12:39:23.672Z,53.67
2019-03-31T12:40:23.675Z,53.67
2019-03-31T12:41:23.665Z,53.77
2019-03-31T12:42:23.664Z,53.77
2019-03-31T12:43:23.661Z,54.06
2019-03-31T12:44:25.220Z,54.06
2019-03-31T12:45:23.653Z,54.25
2019-03-31T12:46:23.646Z,55.20
2019-03-31T12:47:23.642Z,54.91
2019-03-31T12:48:23.638Z,55.11
2019-03-31T12:49:23.633Z,55.87
2019-03-31T12:50:23.631Z,55.96
2019-03-31T12:51:23.628Z,56.06
2019-03-31T12:52:23.621Z,56.16
2019-03-31T12:53:23.617Z,56.25
2019-03-31T12:54:23.614Z,55.68
2019-03-31T12:55:23.610Z,55.58
2019-03-31T12:56:23.610Z,55.30
2019-03-31T12:57:23.601Z,55.30
2019-03-31T12:58:23.598Z,54.34
2019-03-31T12:59:26.960Z,54.63
2019-03-31T13:00:23.590Z,54.41
2019-03-31T13:01:23.588Z,55.08
2019-03-31T13:02:23.583Z,55.27
2019-03-31T13:03:23.581Z,55.46
2019-03-31T13:04:23.576Z,55.55
2019-03-31T13:05:23.568Z,55.18
2019-03-31T13:06:23.562Z,55.08
2019-03-31T13:07:23.561Z,55.36
2019-03-31T13:08:23.555Z,55.46
2019-03-31T13:09:23.552Z,55.27
2019-03-31T13:10:23.599Z,54.89
2019-03-31T13:11:23.927Z,55.27
2019-03-31T13:12:23.788Z,55.27
2019-03-31T13:13:23.635Z,54.60
2019-03-31T13:14:25.095Z,55.27
2019-03-31T13:15:23.529Z,54.99
2019-03-31T13:16:23.520Z,55.46
2019-03-31T13:17:23.515Z,55.27
2019-03-31T13:18:23.515Z,55.94
2019-03-31T13:19:23.507Z,55.84
2019-03-31T13:20:23.501Z,55.36
2019-03-31T13:21:23.497Z,56.32
2019-03-31T13:22:23.492Z,56.41
2019-03-31T13:23:23.492Z,55.84
2019-03-31T13:24:23.486Z,55.55